createdAt,value
2018-04-23T00:00:58.286Z,18.03
2018-04-23T00:02:51.161Z,17.97
2018-04-23T00:03:51.133Z,17.98
2018-04-23T00:05:43.994Z,18.22
2018-04-23T00:06:43.978Z,18.18
2018-04-23T00:08:36.846Z,18.38
2018-04-23T00:09:36.818Z,18.29
2018-04-23T00:11:29.676Z,18.10
2018-04-23T00:12:29.657Z,17.95
2018-04-23T00:14:22.528Z,18.11
2018-04-23T00:15:22.499Z,18.04
2018-04-23T00:17:15.362Z,18.03
2018-04-23T00:18:15.345Z,18.03
2018-04-23T00:20:08.217Z,18.01
2018-04-23T00:21:08.190Z,18.07
2018-04-23T00:23:01.060Z,17.98
2018-04-23T00:24:01.025Z,17.86
2018-04-23T00:25:53.906Z,17.86
2018-04-23T00:26:53.870Z,17.85
2018-04-23T00:28:46.724Z,17.83
2018-04-23T00:29:46.713Z,17.76
2018-04-23T00:31:39.580Z,17.71
2018-04-23T00:32:39.556Z,17.68
2018-04-23T00:34:32.412Z,17.68
2018-04-23T00:35:32.394Z,17.70
2018-04-23T00:37:25.263Z,17.68
2018-04-23T00:38:25.230Z,17.57
2018-04-23T00:40:18.092Z,17.59
2018-04-23T00:41:18.075Z,17.59
2018-04-23T00:43:10.952Z,17.60
2018-04-23T00:44:10.914Z,17.79
2018-04-23T00:46:03.764Z,17.72
2018-04-23T00:47:03.753Z,17.65
2018-04-23T00:48:56.622Z,17.76
2018-04-23T00:49:56.592Z,17.85
2018-04-23T00:51:49.450Z,17.70
2018-04-23T00:52:49.434Z,17.56
2018-04-23T00:54:42.308Z,17.54
2018-04-23T00:55:42.275Z,17.45
2018-04-23T00:57:35.131Z,17.46
2018-04-23T00:58:35.118Z,17.36
2018-04-23T01:00:27.985Z,17.46
2018-04-23T01:01:27.958Z,17.41
2018-04-23T01:03:20.812Z,17.44
2018-04-23T01:04:20.796Z,17.34
2018-04-23T01:06:13.666Z,17.45
2018-04-23T01:07:13.637Z,17.36
2018-04-23T01:09:06.495Z,17.39
2018-04-23T01:10:06.478Z,17.49
2018-04-23T01:11:59.351Z,17.56
2018-04-23T01:12:59.319Z,17.72
2018-04-23T01:14:52.177Z,17.80
2018-04-23T01:15:52.158Z,17.74
2018-04-23T01:17:45.029Z,17.76
2018-04-23T01:18:44.999Z,17.79
2018-04-23T01:20:37.866Z,17.76
2018-04-23T01:21:37.849Z,17.79
2018-04-23T01:23:30.715Z,17.89
2018-04-23T01:24:30.691Z,17.89
2018-04-23T01:26:23.550Z,17.94
2018-04-23T01:27:23.534Z,17.95
2018-04-23T01:29:16.402Z,17.94
2018-04-23T01:30:16.374Z,17.94
2018-04-23T01:32:09.231Z,17.86
2018-04-23T01:33:09.217Z,17.83
2018-04-23T01:35:02.086Z,17.94
2018-04-23T01:36:02.055Z,17.95
2018-04-23T01:37:54.913Z,17.94
2018-04-23T01:38:54.901Z,17.95
2018-04-23T01:40:47.767Z,17.89
2018-04-23T01:41:47.735Z,17.74
2018-04-23T01:43:40.593Z,17.97
2018-04-23T01:44:40.577Z,17.79
2018-04-23T01:46:33.448Z,17.82
2018-04-23T01:47:33.418Z,17.92
2018-04-23T01:49:26.269Z,17.92
2018-04-23T01:50:26.253Z,17.92
2018-04-23T01:52:19.125Z,17.98
2018-04-23T01:53:19.094Z,17.98
2018-04-23T01:55:11.954Z,18.11
2018-04-23T01:56:11.938Z,18.05
2018-04-23T01:58:04.807Z,18.07
2018-04-23T01:59:04.778Z,18.11
2018-04-23T02:00:57.636Z,18.16
2018-04-23T02:01:57.620Z,18.13
2018-04-23T02:03:50.488Z,18.33
2018-04-23T02:04:50.460Z,18.33
2018-04-23T02:06:43.313Z,18.40
2018-04-23T02:07:43.297Z,18.38
2018-04-23T02:09:36.167Z,18.40
2018-04-23T02:10:36.140Z,18.43
2018-04-23T02:12:28.994Z,18.43
2018-04-23T02:13:28.976Z,18.50
2018-04-23T02:15:21.856Z,18.43
2018-04-23T02:16:21.818Z,18.50
2018-04-23T02:18:14.681Z,18.58
2018-04-23T02:19:14.660Z,18.49
2018-04-23T02:21:07.531Z,18.50
2018-04-23T02:22:07.502Z,18.56
2018-04-23T02:24:00.355Z,18.74
2018-04-23T02:25:00.339Z,18.68
2018-04-23T02:26:53.204Z,18.65
2018-04-23T02:27:53.179Z,18.68
2018-04-23T02:29:46.039Z,18.66
2018-04-23T02:30:46.024Z,18.62
2018-04-23T02:32:38.885Z,18.70
2018-04-23T02:33:38.856Z,18.56
2018-04-23T02:35:31.721Z,18.59
2018-04-23T02:36:31.698Z,18.68
2018-04-23T02:38:24.592Z,18.66
2018-04-23T02:39:24.550Z,18.73
2018-04-23T02:41:17.399Z,18.70
2018-04-23T02:42:17.382Z,18.70
2018-04-23T02:44:10.252Z,18.66
2018-04-23T02:45:10.223Z,18.60
2018-04-23T02:47:03.083Z,18.68
2018-04-23T02:48:03.065Z,18.62
2018-04-23T02:49:55.936Z,18.60
2018-04-23T02:50:55.907Z,18.56
2018-04-23T02:52:48.760Z,18.68
2018-04-23T02:53:48.744Z,18.68
2018-04-23T02:55:41.612Z,18.49
2018-04-23T02:56:41.585Z,18.59
2018-04-23T02:58:34.443Z,18.58
2018-04-23T02:59:34.425Z,18.53
2018-04-23T03:01:27.298Z,18.56
2018-04-23T03:02:27.266Z,18.44
2018-04-23T03:04:20.132Z,18.58
2018-04-23T03:05:20.115Z,18.53
2018-04-23T03:07:12.976Z,18.47
2018-04-23T03:08:12.948Z,18.56
2018-04-23T03:10:05.806Z,18.52
2018-04-23T03:11:05.786Z,18.65
2018-04-23T03:12:58.658Z,18.43
2018-04-23T03:13:58.626Z,18.44
2018-04-23T03:15:51.486Z,18.44
2018-04-23T03:16:51.469Z,18.47
2018-04-23T03:18:44.336Z,18.62
2018-04-23T03:19:44.308Z,18.56
2018-04-23T03:21:37.168Z,18.52
2018-04-23T03:22:37.158Z,18.52
2018-04-23T03:24:30.023Z,18.59
2018-04-23T03:25:29.993Z,18.47
2018-04-23T03:27:22.854Z,18.53
2018-04-23T03:28:22.831Z,18.66
2018-04-23T03:30:15.699Z,18.63
2018-04-23T03:31:15.670Z,18.55
2018-04-23T03:33:08.524Z,18.60
2018-04-23T03:34:08.508Z,18.62
2018-04-23T03:36:01.376Z,18.52
2018-04-23T03:37:01.346Z,18.41
2018-04-23T03:38:54.208Z,18.43
2018-04-23T03:39:54.191Z,18.40
2018-04-23T03:41:47.063Z,18.33
2018-04-23T03:42:47.037Z,18.25
2018-04-23T03:44:39.895Z,18.38
2018-04-23T03:45:39.880Z,18.25
2018-04-23T03:47:32.746Z,18.26
2018-04-23T03:48:32.714Z,18.19
2018-04-23T03:50:25.575Z,18.35
2018-04-23T03:51:25.554Z,18.33
2018-04-23T03:53:18.428Z,18.20
2018-04-23T03:54:18.396Z,18.22
2018-04-23T03:56:11.255Z,18.05
2018-04-23T03:57:11.238Z,18.07
2018-04-23T03:59:04.107Z,18.13
2018-04-23T04:00:04.079Z,18.10
2018-04-23T04:01:56.943Z,18.08
2018-04-23T04:02:56.925Z,18.08
2018-04-23T04:04:49.793Z,18.08
2018-04-23T04:05:49.764Z,18.07
2018-04-23T04:07:42.623Z,17.94
2018-04-23T04:08:42.607Z,18.15
2018-04-23T04:10:35.477Z,18.11
2018-04-23T04:11:35.448Z,18.01
2018-04-23T04:13:28.305Z,18.07
2018-04-23T04:14:28.293Z,18.07
2018-04-23T04:16:21.298Z,18.08
2018-04-23T04:17:21.148Z,18.03
2018-04-23T04:19:14.008Z,18.15
2018-04-23T04:20:13.995Z,18.16
2018-04-23T04:22:06.872Z,18.08
2018-04-23T04:23:06.845Z,18.08
2018-04-23T04:24:59.721Z,17.92
2018-04-23T04:25:59.702Z,17.98
2018-04-23T04:27:52.573Z,17.92
2018-04-23T04:28:52.544Z,17.98
2018-04-23T04:30:45.399Z,18.08
2018-04-23T04:31:45.381Z,18.05
2018-04-23T04:33:38.251Z,17.94
2018-04-23T04:34:38.218Z,17.86
2018-04-23T04:36:31.076Z,18.00
2018-04-23T04:37:31.058Z,17.95
2018-04-23T04:39:23.928Z,17.95
2018-04-23T04:40:23.901Z,17.98
2018-04-23T04:42:16.760Z,17.98
2018-04-23T04:43:16.743Z,17.80
2018-04-23T04:45:09.610Z,17.74
2018-04-23T04:46:09.582Z,17.72
2018-04-23T04:48:02.436Z,17.83
2018-04-23T04:49:02.424Z,17.85
2018-04-23T04:50:55.299Z,17.83
2018-04-23T04:51:55.271Z,17.82
2018-04-23T04:53:48.132Z,17.90
2018-04-23T04:54:48.111Z,17.92
2018-04-23T04:56:40.981Z,17.92
2018-04-23T04:57:40.954Z,18.00
2018-04-23T04:59:33.813Z,17.98
2018-04-23T05:00:33.796Z,17.98
2018-04-23T05:02:26.673Z,18.28
2018-04-23T05:03:26.645Z,18.29
2018-04-23T05:05:19.502Z,18.62
2018-04-23T05:06:19.487Z,18.66
2018-04-23T05:08:12.362Z,18.80
2018-04-23T05:09:12.328Z,18.89
2018-04-23T05:11:05.194Z,19.00
2018-04-23T05:12:05.177Z,19.21
2018-04-23T05:13:58.055Z,19.31
2018-04-23T05:14:58.024Z,19.16
2018-04-23T05:16:50.887Z,18.78
2018-04-23T05:17:50.870Z,18.81
2018-04-23T05:19:43.743Z,18.93
2018-04-23T05:20:43.716Z,18.98
2018-04-23T05:22:36.582Z,18.96
2018-04-23T05:23:36.572Z,18.66
2018-04-23T05:25:29.442Z,18.66
2018-04-23T05:26:29.414Z,18.63
2018-04-23T05:28:22.282Z,18.80
2018-04-23T05:29:22.261Z,18.95
2018-04-23T05:31:15.141Z,19.19
2018-04-23T05:32:15.113Z,19.22
2018-04-23T05:34:07.976Z,19.56
2018-04-23T05:35:07.962Z,19.88
2018-04-23T05:37:00.836Z,19.71
2018-04-23T05:38:00.810Z,19.84
2018-04-23T05:39:53.675Z,20.16
2018-04-23T05:40:53.661Z,20.02
2018-04-23T05:42:46.539Z,19.85
2018-04-23T05:43:46.513Z,19.89
2018-04-23T05:45:39.445Z,19.55
2018-04-23T05:46:39.368Z,19.49
2018-04-23T05:48:32.247Z,19.31
2018-04-23T05:49:32.222Z,18.98
2018-04-23T05:51:25.088Z,19.36
2018-04-23T05:52:25.076Z,19.00
2018-04-23T05:54:17.956Z,18.96
2018-04-23T05:55:17.928Z,19.44
2018-04-23T05:57:10.785Z,19.88
2018-04-23T05:58:10.770Z,19.95
2018-04-23T06:00:03.648Z,20.41
2018-04-23T06:01:03.623Z,20.16
2018-04-23T06:02:56.499Z,19.99
2018-04-23T06:03:56.478Z,20.19
2018-04-23T06:05:49.353Z,20.11
2018-04-23T06:06:49.326Z,19.99
2018-04-23T06:08:42.194Z,19.59
2018-04-23T06:09:42.177Z,19.66
2018-04-23T06:11:35.063Z,19.91
2018-04-23T06:12:35.038Z,20.40
2018-04-23T06:14:27.950Z,20.22
2018-04-23T06:15:27.886Z,20.52
2018-04-23T06:17:20.766Z,21.25
2018-04-23T06:18:20.742Z,21.52
2018-04-23T06:20:13.617Z,20.99
2018-04-23T06:21:13.587Z,21.22
2018-04-23T06:23:06.470Z,21.45
2018-04-23T06:24:06.444Z,21.55
2018-04-23T06:25:59.318Z,21.62
2018-04-23T06:26:59.308Z,21.66
2018-04-23T06:28:52.201Z,21.14
2018-04-23T06:29:52.176Z,20.90
2018-04-23T06:31:45.049Z,20.81
2018-04-23T06:32:45.050Z,20.81
2018-04-23T06:34:38.489Z,20.69
2018-04-23T06:35:37.892Z,20.29
2018-04-23T06:37:30.763Z,20.56
2018-04-23T06:38:30.749Z,20.14
2018-04-23T06:40:23.630Z,20.37
2018-04-23T06:41:23.602Z,20.26
2018-04-23T06:43:16.470Z,20.29
2018-04-23T06:44:16.455Z,20.43
2018-04-23T06:46:09.398Z,20.65
2018-04-23T06:47:09.319Z,20.25
2018-04-23T06:49:02.183Z,20.29
2018-04-23T06:50:02.170Z,20.44
2018-04-23T06:51:55.048Z,20.29
2018-04-23T06:52:55.023Z,20.34
2018-04-23T06:54:47.895Z,19.92
2018-04-23T06:55:47.878Z,19.81
2018-04-23T06:57:40.755Z,19.27
2018-04-23T06:58:40.729Z,18.90
2018-04-23T07:00:33.596Z,18.73
2018-04-23T07:01:33.580Z,18.70
2018-04-23T07:03:26.457Z,18.19
2018-04-23T07:04:26.427Z,17.38
2018-04-23T07:06:19.288Z,17.12
2018-04-23T07:07:19.273Z,17.22
2018-04-23T07:09:12.144Z,16.99
2018-04-23T07:10:12.113Z,16.74
2018-04-23T07:12:04.975Z,16.49
2018-04-23T07:13:04.955Z,16.41
2018-04-23T07:14:57.826Z,16.31
2018-04-23T07:15:57.794Z,16.38
2018-04-23T07:17:50.650Z,16.32
2018-04-23T07:18:50.634Z,16.28
2018-04-23T07:20:43.505Z,16.04
2018-04-23T07:21:43.473Z,15.94
2018-04-23T07:23:36.329Z,15.79
2018-04-23T07:24:36.313Z,15.70
2018-04-23T07:26:29.180Z,15.65
2018-04-23T07:27:29.149Z,15.73
2018-04-23T07:29:22.062Z,15.55
2018-04-23T07:30:21.989Z,15.55
2018-04-23T07:32:14.867Z,15.61
2018-04-23T07:33:14.834Z,15.61
2018-04-23T07:35:07.687Z,15.58
2018-04-23T07:36:07.671Z,15.55
2018-04-23T07:38:00.535Z,15.59
2018-04-23T07:39:00.506Z,15.59
2018-04-23T07:40:53.361Z,15.58
2018-04-23T07:41:53.344Z,15.49
2018-04-23T07:43:46.212Z,15.54
2018-04-23T07:44:46.182Z,15.61
2018-04-23T07:46:39.042Z,15.61
2018-04-23T07:47:39.025Z,15.61
2018-04-23T07:49:31.889Z,15.72
2018-04-23T07:50:31.859Z,15.73
2018-04-23T07:52:24.723Z,15.65
2018-04-23T07:53:24.703Z,15.73
2018-04-23T07:55:17.580Z,15.73
2018-04-23T07:56:17.546Z,15.67
2018-04-23T07:58:10.407Z,15.72
2018-04-23T07:59:10.384Z,15.72
2018-04-23T08:01:03.263Z,15.70
2018-04-23T08:02:03.231Z,15.75
2018-04-23T08:03:56.091Z,15.75
2018-04-23T08:04:56.068Z,15.83
2018-04-23T08:06:48.988Z,15.79
2018-04-23T08:07:48.906Z,15.97
2018-04-23T08:09:41.764Z,15.88
2018-04-23T08:10:41.746Z,15.92
2018-04-23T08:12:34.613Z,15.98
2018-04-23T08:13:34.583Z,15.95
2018-04-23T08:15:27.446Z,16.00
2018-04-23T08:16:27.427Z,15.92
2018-04-23T08:18:20.299Z,16.08
2018-04-23T08:19:20.268Z,16.09
2018-04-23T08:21:13.138Z,16.23
2018-04-23T08:22:13.119Z,16.16
2018-04-23T08:24:05.991Z,16.26
2018-04-23T08:25:05.962Z,16.39
2018-04-23T08:26:58.821Z,16.29
2018-04-23T08:27:58.803Z,16.31
2018-04-23T08:29:51.671Z,16.33
2018-04-23T08:30:51.641Z,16.54
2018-04-23T08:32:44.502Z,16.71
2018-04-23T08:33:44.488Z,16.57
2018-04-23T08:35:37.360Z,16.54
2018-04-23T08:36:37.327Z,16.50
2018-04-23T08:38:30.189Z,16.93
2018-04-23T08:39:30.172Z,17.04
2018-04-23T08:41:23.045Z,16.78
2018-04-23T08:42:23.020Z,16.68
2018-04-23T08:44:15.880Z,16.68
2018-04-23T08:45:15.860Z,16.66
2018-04-23T08:47:08.736Z,16.83
2018-04-23T08:48:08.713Z,16.81
2018-04-23T08:50:01.572Z,17.02
2018-04-23T08:51:01.555Z,17.08
2018-04-23T08:52:54.429Z,17.14
2018-04-23T08:53:54.405Z,17.14
2018-04-23T08:55:47.258Z,16.97
2018-04-23T08:56:47.247Z,17.08
2018-04-23T08:58:40.115Z,17.06
2018-04-23T08:59:40.085Z,17.27
2018-04-23T09:01:32.974Z,17.30
2018-04-23T09:02:32.931Z,17.34
2018-04-23T09:04:25.807Z,17.54
2018-04-23T09:05:25.776Z,17.44
2018-04-23T09:07:18.639Z,17.67
2018-04-23T09:08:18.627Z,17.44
2018-04-23T09:10:11.503Z,17.29
2018-04-23T09:11:11.470Z,17.31
2018-04-23T09:13:04.335Z,17.14
2018-04-23T09:14:04.316Z,17.01
2018-04-23T09:15:57.205Z,17.01
2018-04-23T09:16:57.161Z,17.05
2018-04-23T09:18:50.021Z,17.04
2018-04-23T09:19:50.003Z,16.93
2018-04-23T09:21:42.882Z,17.16
2018-04-23T09:22:42.850Z,17.20
2018-04-23T09:24:35.707Z,17.33
2018-04-23T09:25:35.691Z,17.24
2018-04-23T09:27:28.561Z,17.45
2018-04-23T09:28:28.534Z,17.46
2018-04-23T09:30:21.396Z,17.59
2018-04-23T09:31:21.376Z,17.68
2018-04-23T09:33:14.252Z,17.56
2018-04-23T09:34:14.224Z,17.89
2018-04-23T09:36:07.084Z,18.37
2018-04-23T09:37:07.067Z,18.49
2018-04-23T09:38:59.967Z,18.71
2018-04-23T09:39:59.919Z,18.50
2018-04-23T09:41:52.786Z,18.56
2018-04-23T09:42:52.774Z,18.93
2018-04-23T09:44:45.657Z,20.06
2018-04-23T09:45:45.632Z,20.07
2018-04-23T09:47:38.498Z,19.92
2018-04-23T09:48:38.485Z,19.84
2018-04-23T09:50:31.367Z,19.79
2018-04-23T09:51:31.348Z,19.81
2018-04-23T09:53:24.215Z,20.13
2018-04-23T09:54:24.207Z,19.52
2018-04-23T09:56:17.096Z,19.89
2018-04-23T09:57:17.064Z,19.88
2018-04-23T09:59:09.932Z,19.91
2018-04-23T10:00:09.923Z,20.29
2018-04-23T10:02:02.806Z,19.76
2018-04-23T10:03:02.782Z,19.89
2018-04-23T10:04:55.656Z,19.63
2018-04-23T10:05:55.645Z,19.76
2018-04-23T10:07:48.521Z,19.22
2018-04-23T10:08:48.501Z,19.59
2018-04-23T10:10:41.439Z,20.04
2018-04-23T10:11:41.352Z,19.81
2018-04-23T10:13:34.237Z,20.10
2018-04-23T10:14:34.213Z,20.02
2018-04-23T10:16:27.088Z,20.07
2018-04-23T10:17:27.076Z,20.09
2018-04-23T10:19:19.956Z,20.18
2018-04-23T10:20:19.933Z,21.17
2018-04-23T10:22:12.811Z,20.92
2018-04-23T10:23:12.790Z,21.22
2018-04-23T10:25:05.673Z,20.39
2018-04-23T10:26:05.656Z,20.19
2018-04-23T10:27:58.522Z,21.18
2018-04-23T10:28:58.511Z,20.52
2018-04-23T10:30:51.395Z,20.52
2018-04-23T10:31:51.371Z,20.59
2018-04-23T10:33:44.240Z,20.29
2018-04-23T10:34:44.228Z,20.66
2018-04-23T10:36:37.114Z,20.25
2018-04-23T10:37:37.087Z,20.85
2018-04-23T10:39:29.955Z,21.46
2018-04-23T10:40:29.944Z,21.00
2018-04-23T10:42:22.836Z,20.78
2018-04-23T10:43:22.810Z,21.22
2018-04-23T10:45:15.681Z,21.39
2018-04-23T10:46:15.672Z,21.80
2018-04-23T10:48:08.558Z,21.57
2018-04-23T10:49:08.540Z,21.43
2018-04-23T10:51:01.466Z,21.06
2018-04-23T10:52:01.403Z,20.40
2018-04-23T10:53:54.284Z,20.29
2018-04-23T10:54:54.261Z,19.91
2018-04-23T10:56:47.135Z,20.10
2018-04-23T10:57:47.120Z,19.85
2018-04-23T10:59:40.003Z,19.77
2018-04-23T11:00:39.974Z,19.70
2018-04-23T11:02:32.840Z,19.73
2018-04-23T11:03:32.828Z,19.86
2018-04-23T11:05:25.704Z,19.64
2018-04-23T11:06:25.679Z,19.64
2018-04-23T11:08:18.543Z,19.41
2018-04-23T11:09:18.530Z,19.51
2018-04-23T11:11:11.415Z,19.45
2018-04-23T11:12:11.384Z,19.40
2018-04-23T11:14:04.247Z,19.36
2018-04-23T11:15:04.237Z,19.44
2018-04-23T11:16:57.110Z,19.07
2018-04-23T11:17:57.085Z,19.12
2018-04-23T11:19:49.946Z,19.79
2018-04-23T11:20:49.932Z,19.70
2018-04-23T11:22:42.809Z,19.71
2018-04-23T11:23:42.782Z,19.79
2018-04-23T11:25:35.647Z,19.69
2018-04-23T11:26:35.633Z,19.79
2018-04-23T11:28:28.508Z,19.94
2018-04-23T11:29:28.481Z,19.58
2018-04-23T11:31:21.351Z,19.48
2018-04-23T11:32:21.338Z,19.73
2018-04-23T11:34:14.212Z,20.10
2018-04-23T11:35:14.186Z,20.31
2018-04-23T11:37:07.048Z,20.34
2018-04-23T11:38:07.035Z,20.34
2018-04-23T11:39:59.910Z,20.16
2018-04-23T11:40:59.884Z,20.43
2018-04-23T11:42:52.758Z,19.96
2018-04-23T11:43:52.742Z,20.03
2018-04-23T11:45:45.643Z,20.60
2018-04-23T11:46:45.594Z,20.52
2018-04-23T11:48:38.461Z,20.65
2018-04-23T11:49:38.449Z,20.62
2018-04-23T11:51:31.335Z,20.03
2018-04-23T11:52:31.303Z,20.40
2018-04-23T11:54:24.168Z,19.96
2018-04-23T11:55:24.154Z,19.76
2018-04-23T11:57:17.033Z,19.88
2018-04-23T11:58:17.011Z,20.22
2018-04-23T12:00:09.871Z,20.16
2018-04-23T12:01:09.858Z,19.69
2018-04-23T12:03:02.809Z,20.11
2018-04-23T12:04:02.711Z,19.54
2018-04-23T12:05:55.579Z,19.89
2018-04-23T12:06:55.562Z,19.71
2018-04-23T12:08:48.438Z,19.82
2018-04-23T12:09:48.413Z,19.73
2018-04-23T12:11:41.284Z,19.81
2018-04-23T12:12:41.266Z,19.71
2018-04-23T12:14:34.149Z,19.30
2018-04-23T12:15:34.128Z,19.49
2018-04-23T12:17:26.985Z,19.47
2018-04-23T12:18:26.970Z,19.67
2018-04-23T12:20:19.852Z,19.82
2018-04-23T12:21:19.826Z,19.55
2018-04-23T12:23:12.695Z,19.73
2018-04-23T12:24:12.680Z,19.79
2018-04-23T12:26:05.561Z,19.86
2018-04-23T12:27:05.535Z,20.18
2018-04-23T12:28:58.399Z,20.80
2018-04-23T12:29:58.389Z,20.58
2018-04-23T12:31:51.273Z,20.52
2018-04-23T12:32:51.246Z,20.52
2018-04-23T12:34:44.123Z,20.96
2018-04-23T12:35:44.110Z,20.47
2018-04-23T12:37:36.994Z,20.63
2018-04-23T12:38:36.969Z,20.39
2018-04-23T12:40:29.842Z,19.94
2018-04-23T12:41:29.830Z,20.18
2018-04-23T12:43:22.719Z,20.32
2018-04-23T12:44:22.690Z,20.55
2018-04-23T12:46:15.642Z,21.11
2018-04-23T12:47:15.556Z,21.29
2018-04-23T12:49:08.441Z,21.24
2018-04-23T12:50:08.417Z,21.64
2018-04-23T12:52:01.289Z,21.30
2018-04-23T12:53:01.283Z,21.42
2018-04-23T12:54:54.164Z,21.17
2018-04-23T12:55:54.141Z,21.39
2018-04-23T12:57:47.014Z,22.63
2018-04-23T12:58:47.002Z,22.76
2018-04-23T13:00:39.889Z,21.43
2018-04-23T13:01:39.889Z,20.84
2018-04-23T13:03:32.742Z,21.75
2018-04-23T13:04:32.731Z,22.11
2018-04-23T13:06:25.610Z,21.75
2018-04-23T13:07:25.587Z,22.29
2018-04-23T13:09:18.458Z,21.89
2018-04-23T13:10:18.449Z,21.92
2018-04-23T13:12:11.330Z,21.25
2018-04-23T13:13:11.309Z,21.43
2018-04-23T13:15:04.187Z,21.99
2018-04-23T13:16:04.173Z,22.51
2018-04-23T13:17:57.055Z,22.72
2018-04-23T13:18:57.034Z,23.10
2018-04-23T13:20:49.904Z,21.79
2018-04-23T13:21:49.896Z,21.69
2018-04-23T13:23:42.781Z,21.51
2018-04-23T13:24:42.754Z,21.57
2018-04-23T13:26:35.626Z,22.70
2018-04-23T13:27:35.617Z,22.30
2018-04-23T13:29:28.506Z,23.05
2018-04-23T13:30:28.477Z,22.28
2018-04-23T13:32:21.352Z,22.85
2018-04-23T13:33:21.337Z,22.59
2018-04-23T13:35:14.290Z,21.66
2018-04-23T13:36:14.202Z,21.91
2018-04-23T13:38:07.069Z,22.04
2018-04-23T13:39:07.058Z,22.99
2018-04-23T13:40:59.943Z,23.28
2018-04-23T13:41:59.926Z,23.48
2018-04-23T13:43:52.793Z,23.27
2018-04-23T13:44:52.782Z,23.48
2018-04-23T13:46:45.668Z,22.76
2018-04-23T13:47:45.643Z,22.38
2018-04-23T13:49:38.514Z,23.21
2018-04-23T13:50:38.505Z,23.27
2018-04-23T13:52:31.386Z,23.24
2018-04-23T13:53:31.364Z,23.61
2018-04-23T13:55:24.245Z,24.11
2018-04-23T13:56:24.235Z,23.18
2018-04-23T13:58:17.121Z,24.21
2018-04-23T13:59:17.095Z,23.77
2018-04-23T14:01:09.981Z,23.00
2018-04-23T14:02:09.964Z,22.62
2018-04-23T14:04:02.846Z,23.00
2018-04-23T14:05:02.824Z,22.75
2018-04-23T14:06:55.710Z,22.75
2018-04-23T14:07:55.681Z,22.15
2018-04-23T14:09:48.567Z,22.06
2018-04-23T14:10:48.541Z,22.06
2018-04-23T14:12:41.412Z,22.32
2018-04-23T14:13:41.401Z,22.83
2018-04-23T14:15:34.282Z,23.40
2018-04-23T14:16:34.259Z,22.39
2018-04-23T14:18:27.133Z,22.91
2018-04-23T14:19:27.118Z,23.05
2018-04-23T14:21:20.003Z,22.11
2018-04-23T14:22:19.979Z,22.04
2018-04-23T14:24:12.852Z,21.72
2018-04-23T14:25:12.834Z,21.92
2018-04-23T14:27:05.716Z,21.22
2018-04-23T14:28:05.698Z,21.17
2018-04-23T14:29:58.564Z,21.21
2018-04-23T14:30:58.553Z,21.21
2018-04-23T14:32:51.433Z,21.48
2018-04-23T14:33:51.407Z,21.67
2018-04-23T14:35:44.275Z,21.55
2018-04-23T14:36:44.262Z,21.03
2018-04-23T14:38:37.143Z,21.22
2018-04-23T14:39:37.116Z,20.80
2018-04-23T14:41:29.995Z,20.84
2018-04-23T14:42:29.978Z,20.69
2018-04-23T14:44:22.854Z,21.18
2018-04-23T14:45:22.872Z,20.77
2018-04-23T14:47:15.697Z,20.97
2018-04-23T14:48:15.684Z,20.81
2018-04-23T14:50:08.578Z,20.90
2018-04-23T14:51:08.547Z,20.63
2018-04-23T14:53:01.415Z,20.65
2018-04-23T14:54:01.395Z,20.82
2018-04-23T14:55:54.274Z,20.87
2018-04-23T14:56:54.249Z,20.62
2018-04-23T14:58:47.118Z,21.02
2018-04-23T14:59:47.101Z,20.31
2018-04-23T15:01:39.981Z,20.48
2018-04-23T15:02:39.953Z,20.40
2018-04-23T15:04:32.826Z,20.62
2018-04-23T15:05:32.805Z,20.26
2018-04-23T15:07:25.682Z,20.24
2018-04-23T15:08:25.661Z,20.09
2018-04-23T15:10:18.531Z,20.03
2018-04-23T15:11:18.520Z,19.99
2018-04-23T15:13:11.400Z,19.92
2018-04-23T15:14:11.369Z,19.95
2018-04-23T15:16:04.240Z,19.79
2018-04-23T15:17:04.223Z,19.88
2018-04-23T15:18:57.099Z,19.85
2018-04-23T15:19:57.072Z,19.76
2018-04-23T15:21:49.943Z,19.51
2018-04-23T15:22:49.926Z,19.54
2018-04-23T15:24:42.832Z,19.67
2018-04-23T15:25:42.773Z,19.69
2018-04-23T15:27:35.646Z,19.66
2018-04-23T15:28:35.625Z,19.34
2018-04-23T15:30:28.503Z,19.44
2018-04-23T15:31:28.472Z,19.45
2018-04-23T15:33:21.340Z,19.24
2018-04-23T15:34:21.323Z,19.30
2018-04-23T15:36:14.210Z,19.16
2018-04-23T15:37:14.179Z,19.30
2018-04-23T15:39:07.040Z,19.58
2018-04-23T15:40:07.028Z,19.54
2018-04-23T15:41:59.981Z,19.41
2018-04-23T15:42:59.887Z,19.56
2018-04-23T15:44:52.745Z,19.44
2018-04-23T15:45:52.730Z,19.41
2018-04-23T15:47:45.605Z,19.34
2018-04-23T15:48:45.581Z,19.37
2018-04-23T15:50:38.445Z,19.33
2018-04-23T15:51:38.433Z,19.11
2018-04-23T15:53:31.312Z,18.86
2018-04-23T15:54:31.283Z,18.83
2018-04-23T15:56:24.140Z,19.02
2018-04-23T15:57:24.131Z,18.81
2018-04-23T15:59:17.078Z,18.70
2018-04-23T16:00:16.973Z,18.92
2018-04-23T16:02:09.835Z,18.95
2018-04-23T16:03:09.817Z,18.68
2018-04-23T16:05:02.692Z,18.68
2018-04-23T16:06:02.667Z,18.78
2018-04-23T16:07:55.525Z,18.92
2018-04-23T16:08:55.511Z,18.49
2018-04-23T16:10:48.386Z,18.68
2018-04-23T16:11:48.358Z,18.78
2018-04-23T16:13:41.217Z,18.63
2018-04-23T16:14:41.201Z,19.02
2018-04-23T16:16:34.081Z,18.78
2018-04-23T16:17:34.069Z,18.66
2018-04-23T16:19:26.907Z,18.70
2018-04-23T16:20:26.893Z,18.66
2018-04-23T16:22:19.775Z,18.65
2018-04-23T16:23:19.750Z,18.60
2018-04-23T16:25:12.611Z,18.66
2018-04-23T16:26:12.595Z,18.31
2018-04-23T16:28:05.475Z,18.28
2018-04-23T16:29:05.448Z,18.50
2018-04-23T16:30:58.311Z,18.40
2018-04-23T16:31:58.292Z,18.23
2018-04-23T16:33:51.180Z,18.22
2018-04-23T16:34:51.138Z,18.38
2018-04-23T16:36:44.001Z,18.23
2018-04-23T16:37:43.985Z,18.16
2018-04-23T16:39:36.873Z,18.15
2018-04-23T16:40:36.829Z,18.00
2018-04-23T16:42:29.690Z,18.08
2018-04-23T16:43:29.679Z,18.05
2018-04-23T16:45:22.554Z,18.10
2018-04-23T16:46:22.522Z,18.15
2018-04-23T16:48:15.378Z,18.03
2018-04-23T16:49:15.362Z,18.08
2018-04-23T16:51:08.249Z,18.10
2018-04-23T16:52:08.223Z,18.04
2018-04-23T16:54:01.078Z,17.97
2018-04-23T16:55:01.062Z,18.00
2018-04-23T16:56:53.932Z,18.10
2018-04-23T16:57:53.905Z,17.92
2018-04-23T16:59:46.767Z,18.07
2018-04-23T17:00:46.750Z,17.98
2018-04-23T17:02:39.620Z,17.98
2018-04-23T17:03:39.588Z,17.90
2018-04-23T17:05:32.453Z,17.95
2018-04-23T17:06:32.433Z,17.97
2018-04-23T17:08:25.312Z,17.98
2018-04-23T17:09:25.298Z,18.03
2018-04-23T17:11:18.136Z,17.90
2018-04-23T17:12:18.122Z,17.95
2018-04-23T17:14:10.995Z,18.08
2018-04-23T17:15:10.961Z,18.00
2018-04-23T17:17:03.823Z,17.94
2018-04-23T17:18:03.806Z,17.87
2018-04-23T17:19:56.675Z,17.79
2018-04-23T17:20:56.645Z,17.79
2018-04-23T17:22:49.577Z,18.01
2018-04-23T17:23:49.487Z,17.90
2018-04-23T17:25:42.361Z,17.79
2018-04-23T17:26:42.332Z,17.85
2018-04-23T17:28:35.188Z,17.76
2018-04-23T17:29:35.171Z,17.70
2018-04-23T17:31:28.044Z,17.70
2018-04-23T17:32:28.016Z,17.82
2018-04-23T17:34:20.901Z,17.71
2018-04-23T17:35:20.934Z,17.57
2018-04-23T17:37:13.849Z,17.54
2018-04-23T17:38:13.732Z,17.51
2018-04-23T17:40:06.620Z,17.56
2018-04-23T17:41:06.637Z,17.54
2018-04-23T17:42:59.591Z,17.49
2018-04-23T17:43:59.448Z,17.60
2018-04-23T17:45:52.309Z,17.42
2018-04-23T17:46:52.290Z,17.41
2018-04-23T17:48:45.203Z,17.39
2018-04-23T17:49:45.152Z,17.42
2018-04-23T17:51:38.074Z,17.42
2018-04-23T17:52:38.018Z,17.29
2018-04-23T17:54:30.889Z,17.39
2018-04-23T17:55:30.923Z,17.44
2018-04-23T17:57:23.728Z,17.41
2018-04-23T17:58:23.717Z,17.39
2018-04-23T18:00:17.110Z,17.29
2018-04-23T18:01:17.078Z,17.36
2018-04-23T18:03:09.943Z,17.31
2018-04-23T18:04:09.932Z,17.34
2018-04-23T18:06:02.797Z,17.23
2018-04-23T18:07:02.767Z,17.23
2018-04-23T18:08:55.632Z,17.23
2018-04-23T18:09:55.604Z,17.24
2018-04-23T18:11:48.487Z,17.09
2018-04-23T18:12:48.444Z,17.12
2018-04-23T18:14:41.299Z,17.16
2018-04-23T18:15:41.282Z,17.14
2018-04-23T18:17:34.202Z,17.02
2018-04-23T18:18:34.132Z,16.99
2018-04-23T18:20:26.988Z,16.94
2018-04-23T18:21:26.966Z,16.96
2018-04-23T18:23:19.842Z,16.90
2018-04-23T18:24:19.811Z,16.99
2018-04-23T18:26:12.672Z,16.84
2018-04-23T18:27:12.654Z,16.87
2018-04-23T18:29:05.523Z,16.79
2018-04-23T18:30:05.494Z,16.76
2018-04-23T18:31:58.348Z,16.78
2018-04-23T18:32:58.332Z,16.74